Time;durP1;ratioP1;P1;durP2;ratioP2;P2;SDS_P1;SDS_P2;PMS_P1;PMS_P2;Temp;Humidity;BMP_temperature;BMP_pressure;BME280_temperature;BME280_humidity;BME280_pressure;Samples;Min_cycle;Max_cycle;Signal;HPM_P1;HPM_P2
2022/10/21 00:00:02;;;;;;;20.10;7.33;;;;;;;;;;5072771;28;20487;-58
2022/10/21 00:02:30;;;;;;;8.03;7.23;;;;;;;;;;5072663;28;20482;-59
2022/10/21 00:04:57;;;;;;;12.50;7.37;;;;;;;;;;5072348;28;20455;-58
2022/10/21 00:07:24;;;;;;;8.20;7.10;;;;;;;;;;5075704;28;20837;-58
2022/10/21 00:09:51;;;;;;;8.03;7.33;;;;;;;;;;5076542;28;20453;-58
2022/10/21 00:12:17;;;;;;;7.60;6.80;;;;;;;;;;5076715;28;20542;-60
2022/10/21 00:14:44;;;;;;;10.80;6.80;;;;;;;;;;5076663;28;20534;-58
2022/10/21 00:17:11;;;;;;;9.80;6.60;;;;;;;;;;5076419;28;20806;-58
2022/10/21 00:19:41;;;;;;;9.37;7.40;;;;;;;;;;5076644;28;20447;-58
2022/10/21 00:22:08;;;;;;;11.90;8.20;;;;;;;;;;5076379;28;20504;-59
2022/10/21 00:24:35;;;;;;;8.67;7.57;;;;;;;;;;5076524;28;20494;-58
2022/10/21 00:27:02;;;;;;;10.87;9.27;;;;;;;;;;5076378;28;20487;-58
2022/10/21 00:29:29;;;;;;;7.93;7.23;;;;;;;;;;5076613;28;20451;-59
2022/10/21 00:31:56;;;;;;;9.20;7.87;;;;;;;;;;5076241;28;20447;-58
2022/10/21 00:34:23;;;;;;;10.40;7.67;;;;;;;;;;5076158;28;20453;-58
2022/10/21 00:36:51;;;;;;;8.40;7.50;;;;;;;;;;5075987;28;20449;-58
2022/10/21 00:39:18;;;;;;;10.37;8.33;;;;;;;;;;5076156;28;20565;-59
2022/10/21 00:41:45;;;;;;;7.68;6.97;;;;;;;;;;5076260;28;20871;-58
2022/10/21 00:44:13;;;;;;;8.40;7.03;;;;;;;;;;5076003;28;20189;-58
2022/10/21 00:46:41;;;;;;;11.80;7.33;;;;;;;;;;5076071;28;20881;-58
2022/10/21 00:49:13;;;;;;;8.98;7.85;;;;;;;;;;5075635;28;20561;-59
2022/10/21 00:51:40;;;;;;;8.63;7.27;;;;;;;;;;5075814;28;20193;-59
2022/10/21 00:54:08;;;;;;;7.17;6.17;;;;;;;;;;5075923;28;20446;-58
2022/10/21 00:56:35;;;;;;;7.85;6.50;;;;;;;;;;5075776;28;20543;-58
2022/10/21 00:59:03;;;;;;;7.60;6.80;;;;;;;;;;5075656;28;20303;-58
2022/10/21 01:01:30;;;;;;;10.20;7.40;;;;;;;;;;5075689;28;20447;-58
2022/10/21 01:03:57;;;;;;;8.90;8.00;;;;;;;;;;5076141;28;20455;-59
2022/10/21 01:06:25;;;;;;;7.90;7.10;;;;;;;;;;5076213;28;20479;-58
2022/10/21 01:08:54;;;;;;;8.73;7.67;;;;;;;;;;5075928;28;20454;-58
2022/10/21 01:11:22;;;;;;;10.63;7.50;;;;;;;;;;5075566;28;20463;-58
2022/10/21 01:13:55;;;;;;;7.83;7.13;;;;;;;;;;5075481;28;20534;-58
2022/10/21 01:16:26;;;;;;;7.50;6.80;;;;;;;;;;5075241;28;20466;-58
2022/10/21 01:18:59;;;;;;;8.07;6.40;;;;;;;;;;5074689;28;20514;-58
2022/10/21 01:21:31;;;;;;;8.00;7.10;;;;;;;;;;5075464;28;20791;-58
2022/10/21 01:24:12;;;;;;;8.68;7.15;;;;;;;;;;5075407;28;20280;-58
2022/10/21 01:27:00;;;;;;;8.10;7.30;;;;;;;;;;5072488;28;20649;-58
2022/10/21 01:29:44;;;;;;;9.40;7.10;;;;;;;;;;5075368;28;20443;-58
2022/10/21 01:32:16;;;;;;;8.07;7.37;;;;;;;;;;5075283;28;20534;-58
2022/10/21 01:34:46;;;;;;;9.17;8.23;;;;;;;;;;5075126;28;20532;-58
2022/10/21 01:37:17;;;;;;;8.27;7.15;;;;;;;;;;5075016;28;20452;-58
2022/10/21 01:39:46;;;;;;;9.13;8.23;;;;;;;;;;5075238;28;20276;-58
2022/10/21 01:42:15;;;;;;;8.37;7.57;;;;;;;;;;5074857;28;20443;-58
2022/10/21 01:44:45;;;;;;;9.90;8.80;;;;;;;;;;5075010;28;20538;-58
2022/10/21 01:47:16;;;;;;;11.67;8.50;;;;;;;;;;5074699;28;20475;-58
2022/10/21 01:49:46;;;;;;;18.93;9.57;;;;;;;;;;5074838;28;20806;-58
2022/10/21 01:52:15;;;;;;;11.53;7.87;;;;;;;;;;5074986;28;20534;-58
2022/10/21 01:54:43;;;;;;;11.30;9.23;;;;;;;;;;5074785;28;20455;-58
2022/10/21 01:57:11;;;;;;;10.57;8.90;;;;;;;;;;5074752;28;20534;-58
2022/10/21 01:59:39;;;;;;;10.10;9.10;;;;;;;;;;5074540;28;20483;-59
2022/10/21 02:02:07;;;;;;;11.37;8.50;;;;;;;;;;5074466;28;20478;-59
2022/10/21 02:04:36;;;;;;;11.20;9.70;;;;;;;;;;5074631;28;20546;-58
2022/10/21 02:07:03;;;;;;;10.23;9.10;;;;;;;;;;5074488;28;20979;-58
2022/10/21 02:09:31;;;;;;;10.30;9.10;;;;;;;;;;5074483;28;20455;-58
2022/10/21 02:12:01;;;;;;;9.63;8.53;;;;;;;;;;5074366;28;20186;-58
2022/10/21 02:14:31;;;;;;;9.03;8.13;;;;;;;;;;5074515;28;20444;-59
2022/10/21 02:16:58;;;;;;;10.88;8.90;;;;;;;;;;5074193;28;20486;-59
2022/10/21 02:19:26;;;;;;;10.80;9.00;;;;;;;;;;5074062;28;20486;-58
2022/10/21 02:21:56;;;;;;;15.93;8.47;;;;;;;;;;5074275;28;20478;-59
2022/10/21 02:24:28;;;;;;;9.13;8.23;;;;;;;;;;5074396;28;20542;-58
2022/10/21 02:26:55;;;;;;;10.57;9.47;;;;;;;;;;5074068;28;20889;-58
2022/10/21 02:29:24;;;;;;;13.13;10.60;;;;;;;;;;5072989;28;20810;-58
2022/10/21 02:31:57;;;;;;;9.47;8.47;;;;;;;;;;5073990;28;20447;-58
2022/10/21 02:34:29;;;;;;;11.23;9.17;;;;;;;;;;5074280;28;20475;-58
2022/10/21 02:37:04;;;;;;;10.73;9.17;;;;;;;;;;5073886;28;20512;-58
2022/10/21 02:39:33;;;;;;;11.73;9.20;;;;;;;;;;5073695;28;20510;-59
2022/10/21 02:42:00;;;;;;;12.40;10.30;;;;;;;;;;5073936;28;20953;-58
2022/10/21 02:44:27;;;;;;;11.70;10.50;;;;;;;;;;5073920;28;20562;-58
2022/10/21 02:46:54;;;;;;;10.18;9.00;;;;;;;;;;5073544;28;20542;-59
2022/10/21 02:49:21;;;;;;;9.70;8.75;;;;;;;;;;5073681;28;20192;-58
2022/10/21 02:51:48;;;;;;;13.17;8.67;;;;;;;;;;5073573;28;20277;-58
2022/10/21 02:54:16;;;;;;;11.70;8.73;;;;;;;;;;5073415;28;20447;-59
2022/10/21 02:56:43;;;;;;;12.83;9.30;;;;;;;;;;5073547;28;20461;-58
2022/10/21 02:59:10;;;;;;;10.27;8.57;;;;;;;;;;5073445;28;20486;-58
2022/10/21 03:01:37;;;;;;;15.10;9.70;;;;;;;;;;5073499;28;20857;-59
2022/10/21 03:04:04;;;;;;;10.80;9.70;;;;;;;;;;5073502;28;20978;-58
2022/10/21 03:06:31;;;;;;;11.43;10.15;;;;;;;;;;5073224;28;20543;-58
2022/10/21 03:08:58;;;;;;;10.53;9.43;;;;;;;;;;5073083;28;20215;-58
2022/10/21 03:11:26;;;;;;;10.57;9.50;;;;;;;;;;5073369;28;20452;-58
2022/10/21 03:13:53;;;;;;;11.40;8.80;;;;;;;;;;5073546;28;20454;-58
2022/10/21 03:16:20;;;;;;;16.07;9.20;;;;;;;;;;5073164;28;20279;-58
2022/10/21 03:18:47;;;;;;;12.10;9.63;;;;;;;;;;5073153;28;20502;-58
2022/10/21 03:21:14;;;;;;;12.50;9.57;;;;;;;;;;5073004;28;21030;-59
2022/10/21 03:23:41;;;;;;;11.57;9.90;;;;;;;;;;5073154;28;20454;-58
2022/10/21 03:26:08;;;;;;;11.70;9.20;;;;;;;;;;5073045;28;20727;-58
2022/10/21 03:28:36;;;;;;;14.17;10.00;;;;;;;;;;5073052;28;20443;-58
2022/10/21 03:31:03;;;;;;;11.70;10.60;;;;;;;;;;5072986;28;20501;-59
2022/10/21 03:33:30;;;;;;;12.07;9.60;;;;;;;;;;5072851;28;21014;-58
2022/10/21 03:35:57;;;;;;;15.20;9.97;;;;;;;;;;5072950;28;20860;-58
2022/10/21 03:38:24;;;;;;;10.57;9.10;;;;;;;;;;5072734;28;20972;-58
2022/10/21 03:40:51;;;;;;;11.70;10.40;;;;;;;;;;5072802;28;20447;-58
2022/10/21 03:43:18;;;;;;;11.63;10.43;;;;;;;;;;5073132;28;20501;-58
2022/10/21 03:45:47;;;;;;;14.83;11.50;;;;;;;;;;5072793;28;20443;-59
2022/10/21 03:48:14;;;;;;;13.47;11.20;;;;;;;;;;5072609;28;20471;-58
2022/10/21 03:50:41;;;;;;;15.13;10.60;;;;;;;;;;5072584;28;20465;-58
2022/10/21 03:53:08;;;;;;;13.03;10.93;;;;;;;;;;5072969;28;20539;-59
2022/10/21 03:55:35;;;;;;;11.83;10.30;;;;;;;;;;5072918;28;20876;-58
2022/10/21 03:58:02;;;;;;;11.77;10.33;;;;;;;;;;5072971;28;20447;-58
2022/10/21 04:00:29;;;;;;;16.17;10.32;;;;;;;;;;5073147;28;20457;-59
2022/10/21 04:02:57;;;;;;;12.03;10.40;;;;;;;;;;5072760;28;20190;-59
2022/10/21 04:05:24;;;;;;;13.10;9.50;;;;;;;;;;5072526;28;20562;-58
2022/10/21 04:07:51;;;;;;;10.30;9.30;;;;;;;;;;5073078;28;20451;-58
2022/10/21 04:10:18;;;;;;;13.33;10.57;;;;;;;;;;5072702;28;20193;-58
2022/10/21 04:12:45;;;;;;;15.20;10.87;;;;;;;;;;5072876;28;20534;-58
2022/10/21 04:15:13;;;;;;;16.23;11.43;;;;;;;;;;5072504;28;20544;-58
2022/10/21 04:17:40;;;;;;;11.60;10.40;;;;;;;;;;5072452;28;20196;-58
2022/10/21 04:20:10;;;;;;;13.63;10.40;;;;;;;;;;5072553;28;20907;-58
2022/10/21 04:22:37;;;;;;;12.10;10.60;;;;;;;;;;5072576;28;20489;-58
2022/10/21 04:25:04;;;;;;;13.00;10.57;;;;;;;;;;5072512;28;20856;-58
2022/10/21 04:27:31;;;;;;;12.50;10.53;;;;;;;;;;5072402;28;20544;-58
2022/10/21 04:29:58;;;;;;;13.37;11.53;;;;;;;;;;5072287;28;20546;-59
2022/10/21 04:32:25;;;;;;;11.55;10.40;;;;;;;;;;5072487;28;20457;-58
2022/10/21 04:34:52;;;;;;;11.73;10.57;;;;;;;;;;5072450;28;20185;-58
2022/10/21 04:37:21;;;;;;;16.93;11.20;;;;;;;;;;5072320;28;20486;-58
2022/10/21 04:39:48;;;;;;;12.83;11.37;;;;;;;;;;5072322;28;20479;-58
2022/10/21 04:42:15;;;;;;;14.00;12.50;;;;;;;;;;5072485;28;20453;-58
2022/10/21 04:44:42;;;;;;;15.00;11.47;;;;;;;;;;5072314;28;20459;-58
2022/10/21 04:47:09;;;;;;;15.50;12.40;;;;;;;;;;5072250;28;20886;-58
2022/10/21 04:49:35;;;;;;;14.50;12.37;;;;;;;;;;5072354;28;20470;-58
2022/10/21 04:52:02;;;;;;;17.93;11.57;;;;;;;;;;5072379;28;20986;-58
2022/10/21 04:54:31;;;;;;;16.67;13.17;;;;;;;;;;5074981;28;20451;-58
2022/10/21 04:56:58;;;;;;;14.30;12.00;;;;;;;;;;5075647;28;20981;-58
2022/10/21 04:59:25;;;;;;;13.10;11.38;;;;;;;;;;5075539;28;21110;-58
2022/10/21 05:01:51;;;;;;;17.20;11.40;;;;;;;;;;5075691;28;20730;-59
2022/10/21 05:04:19;;;;;;;13.50;11.93;;;;;;;;;;5075594;28;20925;-58
2022/10/21 05:06:45;;;;;;;14.03;12.20;;;;;;;;;;5075377;28;20949;-58
2022/10/21 05:09:12;;;;;;;15.63;11.30;;;;;;;;;;5075421;28;20545;-58
2022/10/21 05:11:41;;;;;;;14.53;12.43;;;;;;;;;;5075260;28;20454;-59
2022/10/21 05:14:08;;;;;;;21.40;13.40;;;;;;;;;;5075584;28;20470;-58
2022/10/21 05:16:35;;;;;;;19.80;13.30;;;;;;;;;;5075485;28;20454;-59
2022/10/21 05:19:02;;;;;;;14.97;13.13;;;;;;;;;;5075377;28;20520;-58
2022/10/21 05:21:28;;;;;;;16.30;12.47;;;;;;;;;;5075649;28;20466;-58
2022/10/21 05:23:55;;;;;;;15.23;12.80;;;;;;;;;;5075339;28;20546;-58
2022/10/21 05:26:23;;;;;;;18.03;12.73;;;;;;;;;;5075059;28;20494;-59
2022/10/21 05:28:52;;;;;;;14.27;12.73;;;;;;;;;;5075282;28;20455;-58
2022/10/21 05:31:19;;;;;;;17.83;12.23;;;;;;;;;;5075440;28;20224;-58
2022/10/21 05:33:45;;;;;;;15.53;12.07;;;;;;;;;;5075128;28;20186;-58
2022/10/21 05:36:12;;;;;;;17.80;12.90;;;;;;;;;;5075120;28;20534;-58
2022/10/21 05:38:39;;;;;;;12.70;11.50;;;;;;;;;;5074762;28;20840;-59
2022/10/21 05:41:06;;;;;;;15.17;13.57;;;;;;;;;;5074649;28;20461;-59
2022/10/21 05:43:33;;;;;;;16.57;12.50;;;;;;;;;;5074826;28;20490;-59
2022/10/21 05:46:01;;;;;;;14.65;12.85;;;;;;;;;;5074661;28;20451;-58
2022/10/21 05:48:28;;;;;;;15.70;12.80;;;;;;;;;;5074612;28;20312;-59
2022/10/21 05:50:56;;;;;;;14.23;12.20;;;;;;;;;;5074650;28;20534;-59
2022/10/21 05:53:23;;;;;;;14.80;11.50;;;;;;;;;;5074594;28;20447;-58
2022/10/21 05:55:56;;;;;;;16.07;11.73;;;;;;;;;;5074628;28;20994;-58
2022/10/21 05:58:24;;;;;;;12.48;10.80;;;;;;;;;;5074876;28;20448;-59
2022/10/21 06:00:53;;;;;;;13.20;11.90;;;;;;;;;;5074333;28;20225;-57
2022/10/21 06:03:22;;;;;;;12.77;11.47;;;;;;;;;;5074490;28;20470;-59
2022/10/21 06:05:49;;;;;;;14.03;11.50;;;;;;;;;;5074278;28;20965;-60
2022/10/21 06:08:16;;;;;;;12.07;10.90;;;;;;;;;;5074599;28;20868;-58
2022/10/21 06:10:43;;;;;;;11.90;10.20;;;;;;;;;;5074470;28;20889;-59
2022/10/21 06:13:10;;;;;;;13.23;10.50;;;;;;;;;;5074493;28;20450;-59
2022/10/21 06:15:37;;;;;;;12.40;10.53;;;;;;;;;;5074315;28;20447;-58
2022/10/21 06:18:04;;;;;;;12.23;10.60;;;;;;;;;;5074070;28;20955;-58
2022/10/21 06:20:32;;;;;;;14.40;10.80;;;;;;;;;;5073925;28;21065;-58
2022/10/21 06:22:59;;;;;;;12.40;10.30;;;;;;;;;;5074236;28;20454;-58
2022/10/21 06:25:26;;;;;;;16.77;11.80;;;;;;;;;;5074092;28;20459;-58
2022/10/21 06:27:53;;;;;;;11.43;10.23;;;;;;;;;;5074077;28;20506;-58
2022/10/21 06:30:21;;;;;;;11.73;10.30;;;;;;;;;;5073949;28;20447;-58
2022/10/21 06:32:48;;;;;;;11.37;9.23;;;;;;;;;;5073840;28;20191;-58
2022/10/21 06:35:15;;;;;;;14.57;10.40;;;;;;;;;;5073642;28;20504;-58
2022/10/21 06:37:44;;;;;;;12.10;10.90;;;;;;;;;;5073988;28;20447;-59
2022/10/21 06:40:11;;;;;;;10.57;9.57;;;;;;;;;;5073494;28;21005;-58
2022/10/21 06:42:38;;;;;;;11.03;9.90;;;;;;;;;;5073748;28;20451;-58
2022/10/21 06:45:05;;;;;;;12.03;9.40;;;;;;;;;;5073519;28;20487;-59
2022/10/21 06:47:32;;;;;;;12.90;9.90;;;;;;;;;;5073362;28;20891;-59
2022/10/21 06:50:01;;;;;;;10.50;9.50;;;;;;;;;;5073544;28;20522;-59
2022/10/21 06:52:29;;;;;;;11.20;8.70;;;;;;;;;;5073612;28;20447;-59
2022/10/21 06:54:57;;;;;;;9.50;8.60;;;;;;;;;;5073431;28;20530;-59
2022/10/21 06:57:24;;;;;;;10.80;8.63;;;;;;;;;;5073467;28;20189;-59
2022/10/21 06:59:51;;;;;;;13.93;9.80;;;;;;;;;;5073123;28;20552;-59
2022/10/21 07:02:18;;;;;;;10.73;9.63;;;;;;;;;;5073119;28;20458;-59
2022/10/21 07:04:47;;;;;;;10.13;9.23;;;;;;;;;;5073181;28;20458;-61
2022/10/21 07:07:14;;;;;;;10.80;9.17;;;;;;;;;;5073167;28;20473;-59
2022/10/21 07:09:41;;;;;;;10.40;9.30;;;;;;;;;;5073378;28;20447;-59
2022/10/21 07:12:09;;;;;;;13.33;9.77;;;;;;;;;;5073053;28;20594;-59
2022/10/21 07:14:36;;;;;;;10.00;9.00;;;;;;;;;;5073070;28;20857;-59
2022/10/21 07:17:03;;;;;;;10.17;9.13;;;;;;;;;;5072544;28;20264;-59
2022/10/21 07:19:30;;;;;;;12.43;8.50;;;;;;;;;;5073146;28;20562;-59
2022/10/21 07:21:57;;;;;;;10.80;9.27;;;;;;;;;;5073224;28;20829;-60
2022/10/21 07:24:24;;;;;;;12.43;9.10;;;;;;;;;;5073117;28;20973;-59
2022/10/21 07:26:51;;;;;;;10.80;9.50;;;;;;;;;;5072808;28;20193;-59
2022/10/21 07:29:19;;;;;;;10.17;8.67;;;;;;;;;;5072832;28;20455;-59
2022/10/21 07:31:46;;;;;;;9.53;8.60;;;;;;;;;;5073318;28;20534;-59
2022/10/21 07:34:13;;;;;;;9.90;8.90;;;;;;;;;;5072806;28;20538;-57
2022/10/21 07:36:41;;;;;;;9.47;8.63;;;;;;;;;;5072736;28;20489;-54
2022/10/21 07:39:09;;;;;;;8.93;8.03;;;;;;;;;;5072887;28;20451;-55
2022/10/21 07:41:38;;;;;;;10.00;9.07;;;;;;;;;;5072672;28;20455;-55
2022/10/21 07:44:07;;;;;;;8.77;7.40;;;;;;;;;;5072774;28;21138;-55
2022/10/21 07:46:35;;;;;;;9.32;8.43;;;;;;;;;;5072854;28;20450;-56
2022/10/21 07:49:02;;;;;;;8.43;7.53;;;;;;;;;;5072720;28;20233;-55
2022/10/21 07:51:29;;;;;;;9.20;8.30;;;;;;;;;;5074660;28;20453;-58
2022/10/21 07:53:57;;;;;;;8.87;8.03;;;;;;;;;;5072952;28;20453;-56
2022/10/21 07:56:24;;;;;;;7.60;6.97;;;;;;;;;;5072286;28;20495;-58
2022/10/21 07:58:52;;;;;;;8.97;8.17;;;;;;;;;;5072755;28;20933;-57
2022/10/21 08:01:19;;;;;;;9.75;8.30;;;;;;;;;;5072585;28;20483;-58
2022/10/21 08:03:47;;;;;;;8.67;7.87;;;;;;;;;;5072696;28;20192;-56
2022/10/21 08:06:15;;;;;;;9.37;8.47;;;;;;;;;;5072245;28;20473;-56
2022/10/21 08:08:42;;;;;;;12.00;8.00;;;;;;;;;;5072400;28;20931;-58
2022/10/21 08:11:09;;;;;;;19.30;8.50;;;;;;;;;;5092084;28;21005;-57
2022/10/21 08:13:36;;;;;;;8.77;7.87;;;;;;;;;;5092793;28;20878;-58
2022/10/21 08:16:05;;;;;;;8.93;8.05;;;;;;;;;;5092846;28;20447;-58
2022/10/21 08:18:32;;;;;;;8.47;7.87;;;;;;;;;;5092580;28;20193;-57
2022/10/21 08:21:03;;;;;;;9.73;7.90;;;;;;;;;;5092523;28;20561;-58
2022/10/21 08:23:30;;;;;;;8.90;8.20;;;;;;;;;;5092552;28;20442;-53
2022/10/21 08:25:59;;;;;;;10.47;8.40;;;;;;;;;;5092548;28;20530;-57
2022/10/21 08:28:27;;;;;;;10.43;8.80;;;;;;;;;;5095790;28;20445;-57
2022/10/21 08:30:54;;;;;;;9.97;8.00;;;;;;;;;;5096479;28;20926;-56
2022/10/21 08:33:21;;;;;;;10.30;8.20;;;;;;;;;;5096405;28;20533;-54
2022/10/21 08:35:48;;;;;;;8.98;8.18;;;;;;;;;;5096269;28;20813;-56
2022/10/21 08:38:16;;;;;;;8.88;8.07;;;;;;;;;;5096346;28;20188;-56
2022/10/21 08:40:45;;;;;;;8.83;8.00;;;;;;;;;;5096167;28;20217;-57
2022/10/21 08:43:17;;;;;;;7.70;7.10;;;;;;;;;;5096229;28;20453;-57
2022/10/21 08:45:46;;;;;;;12.50;7.97;;;;;;;;;;5096269;28;20193;-57
2022/10/21 08:48:15;;;;;;;7.93;7.23;;;;;;;;;;5096050;28;20472;-55
2022/10/21 08:50:44;;;;;;;9.27;8.27;;;;;;;;;;5096046;28;20458;-56
2022/10/21 08:53:14;;;;;;;10.47;8.20;;;;;;;;;;5096116;28;20446;-56
2022/10/21 08:55:42;;;;;;;8.93;7.87;;;;;;;;;;5096134;28;20452;-57
2022/10/21 08:58:13;;;;;;;8.73;7.90;;;;;;;;;;5095705;28;20546;-57
2022/10/21 09:00:44;;;;;;;8.60;7.70;;;;;;;;;;5095833;28;20478;-57
2022/10/21 09:03:16;;;;;;;9.03;8.10;;;;;;;;;;5095841;28;20453;-56
2022/10/21 09:05:56;;;;;;;8.97;8.17;;;;;;;;;;5095750;28;20447;-55
2022/10/21 09:08:25;;;;;;;9.30;7.63;;;;;;;;;;5091582;28;21000;-57
2022/10/21 09:11:02;;;;;;;9.40;8.57;;;;;;;;;;5077998;28;20814;-56
2022/10/21 09:13:38;;;;;;;9.90;8.90;;;;;;;;;;5075239;28;20956;-58
2022/10/21 09:16:07;;;;;;;9.30;8.40;;;;;;;;;;5075207;28;20447;-57
2022/10/21 09:18:44;;;;;;;8.47;7.67;;;;;;;;;;5075353;28;20457;-52
2022/10/21 09:21:15;;;;;;;8.63;7.30;;;;;;;;;;5074861;28;21040;-57
2022/10/21 09:23:53;;;;;;;13.83;8.93;;;;;;;;;;5086819;28;20453;-57
2022/10/21 09:26:33;;;;;;;8.82;7.90;;;;;;;;;;5095404;28;20450;-59
2022/10/21 09:29:01;;;;;;;9.43;8.63;;;;;;;;;;5095736;28;20215;-53
2022/10/21 09:31:29;;;;;;;9.30;8.27;;;;;;;;;;5095389;28;20457;-57
2022/10/21 09:33:58;;;;;;;9.87;8.37;;;;;;;;;;5095083;28;20957;-53
2022/10/21 09:36:27;;;;;;;11.60;8.50;;;;;;;;;;5095060;28;20477;-56
2022/10/21 09:38:56;;;;;;;11.63;8.07;;;;;;;;;;5089624;28;20530;-56
2022/10/21 09:41:24;;;;;;;9.25;8.07;;;;;;;;;;5074726;28;20996;-56
2022/10/21 09:43:54;;;;;;;8.30;7.40;;;;;;;;;;5074808;28;20186;-56
2022/10/21 09:46:21;;;;;;;14.80;8.00;;;;;;;;;;5074794;28;20800;-55
2022/10/21 09:48:49;;;;;;;12.83;8.37;;;;;;;;;;5075071;28;20483;-56
2022/10/21 09:51:17;;;;;;;10.63;8.23;;;;;;;;;;5089702;28;20446;-57
2022/10/21 09:53:46;;;;;;;8.93;8.13;;;;;;;;;;5094891;28;20199;-57
2022/10/21 09:56:15;;;;;;;8.83;8.07;;;;;;;;;;5094668;28;21033;-58
2022/10/21 09:58:46;;;;;;;8.33;7.60;;;;;;;;;;5094550;28;20534;-57
2022/10/21 10:01:17;;;;;;;11.03;8.30;;;;;;;;;;5094199;28;20494;-58
2022/10/21 10:03:46;;;;;;;8.70;7.80;;;;;;;;;;5084169;28;20440;-58
2022/10/21 10:06:13;;;;;;;8.70;7.90;;;;;;;;;;5083028;28;20538;-59
2022/10/21 10:08:41;;;;;;;8.03;7.33;;;;;;;;;;5084850;28;20507;-56
2022/10/21 10:11:13;;;;;;;8.00;7.27;;;;;;;;;;5081255;28;20455;-58
2022/10/21 10:13:41;;;;;;;7.83;7.10;;;;;;;;;;5074112;28;20842;-54
2022/10/21 10:16:16;;;;;;;10.55;7.30;;;;;;;;;;5074157;28;20458;-64
2022/10/21 10:18:45;;;;;;;8.13;7.43;;;;;;;;;;5074100;28;20197;-56
2022/10/21 10:21:13;;;;;;;8.70;7.80;;;;;;;;;;5074008;28;20471;-57
2022/10/21 10:23:45;;;;;;;12.33;8.23;;;;;;;;;;5074087;28;20447;-57
2022/10/21 10:26:17;;;;;;;9.43;8.53;;;;;;;;;;5073865;28;20448;-58
2022/10/21 10:28:48;;;;;;;9.60;7.23;;;;;;;;;;5073739;28;20538;-58
2022/10/21 10:31:23;;;;;;;7.80;7.20;;;;;;;;;;5074056;28;20530;-59
2022/10/21 10:33:54;;;;;;;9.20;7.80;;;;;;;;;;5074230;28;20455;-59
2022/10/21 10:36:25;;;;;;;7.83;7.03;;;;;;;;;;5073807;28;20460;-56
2022/10/21 10:38:54;;;;;;;10.52;7.05;;;;;;;;;;5073680;28;20474;-55
2022/10/21 10:41:21;;;;;;;8.73;7.33;;;;;;;;;;5073687;28;20287;-54
2022/10/21 10:43:49;;;;;;;7.57;6.87;;;;;;;;;;5073012;28;20550;-52
2022/10/21 10:46:24;;;;;;;8.20;7.50;;;;;;;;;;5071686;28;20547;-52
2022/10/21 10:48:53;;;;;;;8.97;7.70;;;;;;;;;;5073469;28;20475;-53
2022/10/21 10:51:26;;;;;;;7.97;7.17;;;;;;;;;;5072003;28;20868;-52
2022/10/21 10:54:17;;;;;;;7.27;6.67;;;;;;;;;;5073789;28;20444;-49
2022/10/21 10:56:45;;;;;;;10.73;7.50;;;;;;;;;;5073475;28;20443;-52
2022/10/21 10:59:15;;;;;;;8.90;7.17;;;;;;;;;;5073382;28;20196;-52
2022/10/21 11:01:46;;;;;;;11.20;7.63;;;;;;;;;;5073086;28;20483;-52
2022/10/21 11:04:17;;;;;;;9.30;8.43;;;;;;;;;;5073450;28;20542;-52
2022/10/21 11:06:46;;;;;;;11.15;7.53;;;;;;;;;;5073474;28;20451;-51
2022/10/21 11:09:13;;;;;;;9.00;8.10;;;;;;;;;;5073006;28;20283;-54
2022/10/21 11:11:43;;;;;;;8.43;7.63;;;;;;;;;;5073117;28;21002;-50
2022/10/21 11:14:13;;;;;;;11.20;7.43;;;;;;;;;;5073193;28;20444;-52
2022/10/21 11:16:58;;;;;;;13.77;7.57;;;;;;;;;;5073275;28;20943;-50
2022/10/21 11:19:29;;;;;;;8.87;8.07;;;;;;;;;;5072923;28;20930;-51
2022/10/21 11:21:56;;;;;;;7.93;7.33;;;;;;;;;;5072933;28;20489;-52
2022/10/21 11:24:32;;;;;;;8.37;6.33;;;;;;;;;;5072907;28;21024;-55
2022/10/21 11:27:01;;;;;;;12.27;8.20;;;;;;;;;;5072867;28;20439;-55
2022/10/21 11:29:34;;;;;;;7.60;6.80;;;;;;;;;;5072863;28;20444;-55
2022/10/21 11:32:04;;;;;;;6.97;6.47;;;;;;;;;;5072981;28;20466;-54
2022/10/21 11:34:38;;;;;;;8.30;7.60;;;;;;;;;;5073055;28;20938;-53
2022/10/21 11:37:07;;;;;;;7.18;6.47;;;;;;;;;;5072780;28;20833;-53
2022/10/21 11:39:40;;;;;;;8.32;6.40;;;;;;;;;;5073217;28;20280;-53
2022/10/21 11:42:12;;;;;;;7.77;6.70;;;;;;;;;;5072879;28;20570;-54
2022/10/21 11:44:48;;;;;;;6.27;5.67;;;;;;;;;;5073012;28;20957;-51
2022/10/21 11:47:18;;;;;;;8.07;6.17;;;;;;;;;;5072449;28;20566;-51
2022/10/21 11:49:49;;;;;;;7.33;6.50;;;;;;;;;;5072618;28;20482;-53
2022/10/21 11:52:22;;;;;;;7.80;7.00;;;;;;;;;;5072848;28;20534;-52
2022/10/21 11:54:54;;;;;;;8.60;6.27;;;;;;;;;;5072686;28;20538;-53
2022/10/21 11:57:25;;;;;;;7.57;6.83;;;;;;;;;;5072563;28;20484;-53
2022/10/21 11:59:59;;;;;;;8.37;6.27;;;;;;;;;;5072659;28;20447;-52
2022/10/21 12:02:29;;;;;;;6.93;6.23;;;;;;;;;;5075833;28;20548;-50
2022/10/21 12:05:03;;;;;;;7.03;6.30;;;;;;;;;;5079320;28;20549;-53
2022/10/21 12:07:38;;;;;;;8.37;6.27;;;;;;;;;;5079348;28;20457;-54
2022/10/21 12:10:06;;;;;;;7.10;6.60;;;;;;;;;;5079229;28;20478;-55
2022/10/21 12:12:35;;;;;;;12.00;6.90;;;;;;;;;;5079142;28;20492;-54
2022/10/21 12:15:03;;;;;;;8.07;6.80;;;;;;;;;;5079401;28;20542;-54
2022/10/21 12:17:32;;;;;;;6.87;6.17;;;;;;;;;;5079190;28;20481;-52
2022/10/21 12:20:02;;;;;;;9.70;6.18;;;;;;;;;;5079327;28;20455;-50
2022/10/21 12:22:31;;;;;;;6.78;6.05;;;;;;;;;;5078865;28;20224;-53
2022/10/21 12:25:01;;;;;;;8.30;7.40;;;;;;;;;;5079015;28;20276;-52
2022/10/21 12:27:30;;;;;;;6.33;5.73;;;;;;;;;;5079171;28;20480;-50
2022/10/21 12:30:01;;;;;;;6.23;5.50;;;;;;;;;;5079028;28;20447;-54
2022/10/21 12:32:31;;;;;;;6.40;5.90;;;;;;;;;;5078880;28;20474;-52
2022/10/21 12:34:58;;;;;;;7.97;7.17;;;;;;;;;;5078767;28;20490;-50
2022/10/21 12:37:43;;;;;;;7.00;6.40;;;;;;;;;;5078631;28;20542;-52
2022/10/21 12:40:12;;;;;;;6.60;6.00;;;;;;;;;;5079568;28;20493;-52
2022/10/21 12:42:43;;;;;;;6.57;6.07;;;;;;;;;;5078855;28;20514;-52
2022/10/21 12:45:25;;;;;;;7.17;6.57;;;;;;;;;;5078887;28;20909;-51
2022/10/21 12:47:53;;;;;;;7.33;6.63;;;;;;;;;;5078657;28;20524;-48
2022/10/21 12:50:25;;;;;;;11.43;6.00;;;;;;;;;;5078603;28;20569;-48
2022/10/21 12:53:05;;;;;;;9.43;6.60;;;;;;;;;;5078874;28;20448;-54
2022/10/21 12:55:38;;;;;;;5.90;5.50;;;;;;;;;;5078689;28;20802;-52
2022/10/21 12:58:06;;;;;;;7.33;6.23;;;;;;;;;;5078780;28;20447;-51
2022/10/21 13:00:57;;;;;;;6.80;6.20;;;;;;;;;;5078623;28;20447;-50
2022/10/21 13:03:44;;;;;;;10.13;6.17;;;;;;;;;;5063560;28;20946;-52
2022/10/21 13:06:11;;;;;;;8.93;6.13;;;;;;;;;;5078458;28;20870;-52
2022/10/21 13:08:41;;;;;;;6.40;5.90;;;;;;;;;;5078614;28;20192;-51
2022/10/21 13:11:19;;;;;;;6.43;5.93;;;;;;;;;;5078920;28;20453;-50
2022/10/21 13:13:46;;;;;;;6.50;6.00;;;;;;;;;;5076359;28;20452;-54
2022/10/21 13:16:28;;;;;;;6.77;5.53;;;;;;;;;;5075440;28;20450;-53
2022/10/21 13:18:57;;;;;;;7.23;6.53;;;;;;;;;;5075313;28;20478;-51
2022/10/21 13:21:25;;;;;;;7.23;6.50;;;;;;;;;;5075060;28;20479;-53
2022/10/21 13:23:53;;;;;;;6.90;6.17;;;;;;;;;;5075385;28;20447;-50
2022/10/21 13:26:23;;;;;;;8.10;6.37;;;;;;;;;;5075262;28;20550;-52
2022/10/21 13:28:57;;;;;;;6.37;5.87;;;;;;;;;;5075248;28;20447;-50
2022/10/21 13:31:24;;;;;;;9.27;5.87;;;;;;;;;;5074881;28;20465;-51
2022/10/21 13:33:52;;;;;;;5.83;5.20;;;;;;;;;;5074897;28;20802;-51
2022/10/21 13:36:31;;;;;;;9.77;6.30;;;;;;;;;;5075129;28;20535;-51
2022/10/21 13:39:01;;;;;;;6.90;6.17;;;;;;;;;;5075086;28;20454;-52
2022/10/21 13:41:28;;;;;;;6.40;5.87;;;;;;;;;;5074885;28;20482;-52
2022/10/21 13:43:57;;;;;;;7.20;6.20;;;;;;;;;;5074924;28;20454;-52
2022/10/21 13:46:25;;;;;;;6.13;5.53;;;;;;;;;;5074667;28;20447;-52
2022/10/21 13:48:52;;;;;;;6.67;5.97;;;;;;;;;;5074648;28;20534;-53
2022/10/21 13:51:21;;;;;;;6.97;6.37;;;;;;;;;;5074611;28;20518;-50
2022/10/21 13:53:48;;;;;;;11.17;6.50;;;;;;;;;;5074739;28;20444;-53
2022/10/21 13:56:21;;;;;;;12.03;5.73;;;;;;;;;;5074516;28;20431;-53
2022/10/21 13:58:48;;;;;;;6.38;5.70;;;;;;;;;;5074503;28;20868;-51
2022/10/21 14:01:17;;;;;;;5.80;5.40;;;;;;;;;;5074613;28;20537;-55
2022/10/21 14:03:44;;;;;;;6.30;5.70;;;;;;;;;;5074329;28;20232;-52
2022/10/21 14:06:12;;;;;;;6.90;6.13;;;;;;;;;;5074144;28;20944;-56
2022/10/21 14:08:40;;;;;;;8.20;6.10;;;;;;;;;;5074389;28;20557;-50
2022/10/21 14:11:11;;;;;;;7.00;6.33;;;;;;;;;;5074275;28;20863;-50
2022/10/21 14:13:39;;;;;;;6.53;5.93;;;;;;;;;;5074295;28;20546;-53
2022/10/21 14:16:07;;;;;;;6.33;5.70;;;;;;;;;;5074430;28;20451;-50
2022/10/21 14:18:37;;;;;;;7.30;6.10;;;;;;;;;;5074257;28;20501;-50
2022/10/21 14:21:04;;;;;;;7.30;6.70;;;;;;;;;;5074198;28;20475;-54
2022/10/21 14:23:31;;;;;;;6.78;6.07;;;;;;;;;;5074061;28;20888;-55
2022/10/21 14:26:02;;;;;;;6.20;5.47;;;;;;;;;;5073830;28;20501;-54
2022/10/21 14:28:29;;;;;;;18.20;6.43;;;;;;;;;;5074273;28;20453;-55
2022/10/21 14:31:00;;;;;;;5.85;5.35;;;;;;;;;;5073925;28;20450;-52
2022/10/21 14:33:27;;;;;;;6.50;6.00;;;;;;;;;;5074109;28;20599;-50
2022/10/21 14:36:11;;;;;;;9.80;6.10;;;;;;;;;;5073935;28;20974;-51
2022/10/21 14:38:40;;;;;;;8.18;5.85;;;;;;;;;;5073798;28;20447;-53
2022/10/21 14:41:08;;;;;;;6.63;6.03;;;;;;;;;;5073905;28;20200;-52
2022/10/21 14:43:37;;;;;;;7.63;5.93;;;;;;;;;;5073630;28;20574;-50